Terminal Aerodrome Forecast
Issued by NWS Cleveland, OH

Home | Current Version | Previous Version | Graphics & Text | Print | Product List | Glossary On
Versions: 1 2 3 4 5 6 7 8 9 10 11 12 13 14 15 16 17 18 19 20 21
000
FTUS41 KCLE 172300
TAFYNG
TAF
KYNG 172340Z 1800/1824 24010KT P6SM SCT050 BKN070
     FM180300 26014KT P6SM -SHRA SCT015 OVC025
      TEMPO 1804/1808 26012G20KT 5SM -SHRA BKN018
     FM180800 29012KT 6SM -SHRA BR SCT009 OVC015
     FM181600 30012G20KT P6SM VCSH OVC025
     FM182100 30014KT P6SM OVC035=

USA.gov is the U.S. government's official web portal to all federal, state and local government web resources and services.